createdAt,value
2023-04-13T00:01:00.290Z,5.70
2023-04-13T00:03:30.827Z,5.70
2023-04-13T00:05:58.887Z,5.70
2023-04-13T00:08:30.647Z,5.70
2023-04-13T00:10:59.841Z,5.60
2023-04-13T00:13:27.750Z,5.60
2023-04-13T00:15:55.840Z,5.60
2023-04-13T00:18:23.927Z,5.60
2023-04-13T00:20:51.747Z,5.50
2023-04-13T00:23:19.737Z,5.50
2023-04-13T00:25:48.851Z,5.50
2023-04-13T00:28:18.943Z,5.50
2023-04-13T00:30:46.821Z,5.50
2023-04-13T00:33:14.646Z,5.50
2023-04-13T00:35:43.825Z,5.50
2023-04-13T00:38:11.629Z,5.50
2023-04-13T00:40:39.424Z,5.50
2023-04-13T00:43:08.533Z,5.50
2023-04-13T00:45:39.049Z,5.50
2023-04-13T00:48:10.700Z,5.50
2023-04-13T00:50:38.767Z,5.50
2023-04-13T00:53:10.768Z,5.50
2023-04-13T00:55:42.566Z,5.50
2023-04-13T00:58:13.358Z,5.50
2023-04-13T01:00:43.083Z,5.40
2023-04-13T01:03:11.836Z,5.50
2023-04-13T01:05:50.497Z,5.40
2023-04-13T01:08:28.556Z,5.40
2023-04-13T01:11:03.464Z,5.40
2023-04-13T01:13:40.346Z,5.40
2023-04-13T01:16:15.005Z,5.30
2023-04-13T01:18:45.516Z,5.30
2023-04-13T01:21:17.828Z,5.30
2023-04-13T01:23:53.714Z,5.30
2023-04-13T01:26:23.969Z,5.30
2023-04-13T01:28:54.052Z,5.30
2023-04-13T01:31:22.433Z,5.30
2023-04-13T01:33:51.303Z,5.30
2023-04-13T01:36:20.041Z,5.30
2023-04-13T01:38:48.315Z,5.30
2023-04-13T01:41:16.142Z,5.30
2023-04-13T01:43:44.011Z,5.30
2023-04-13T01:46:14.697Z,5.20
2023-04-13T01:48:48.171Z,5.20
2023-04-13T01:51:19.420Z,5.10
2023-04-13T01:53:54.418Z,5.10
2023-04-13T01:56:23.842Z,5.10
2023-04-13T01:58:56.501Z,5.10
2023-04-13T02:01:26.736Z,5.10
2023-04-13T02:03:55.303Z,5.10
2023-04-13T02:06:23.730Z,5.00
2023-04-13T02:08:52.620Z,5.00
2023-04-13T02:11:21.436Z,5.00
2023-04-13T02:13:49.617Z,5.00
2023-04-13T02:16:17.449Z,5.00
2023-04-13T02:18:47.129Z,5.00
2023-04-13T02:21:16.322Z,5.00
2023-04-13T02:23:44.771Z,5.00
2023-04-13T02:26:14.410Z,5.00
2023-04-13T02:28:42.441Z,5.00
2023-04-13T02:31:10.280Z,5.00
2023-04-13T02:33:39.889Z,5.00
2023-04-13T02:36:10.553Z,5.00
2023-04-13T02:38:38.383Z,5.00
2023-04-13T02:41:06.760Z,5.00
2023-04-13T02:43:35.663Z,5.00
2023-04-13T02:46:04.248Z,5.00
2023-04-13T02:48:32.181Z,5.00
2023-04-13T02:51:00.072Z,5.00
2023-04-13T02:53:29.461Z,5.00
2023-04-13T02:55:57.275Z,5.00
2023-04-13T02:58:25.375Z,5.00
2023-04-13T03:00:53.479Z,5.00
2023-04-13T03:03:21.480Z,4.90
2023-04-13T03:05:50.429Z,4.90
2023-04-13T03:08:18.907Z,4.90
2023-04-13T03:10:48.186Z,4.90
2023-04-13T03:13:16.103Z,4.90
2023-04-13T03:15:44.218Z,4.90
2023-04-13T03:18:12.132Z,4.90
2023-04-13T03:20:40.021Z,4.90
2023-04-13T03:23:07.869Z,4.80
2023-04-13T03:25:35.984Z,4.80
2023-04-13T03:28:05.504Z,4.80
2023-04-13T03:30:33.396Z,4.80
2023-04-13T03:33:01.306Z,4.80
2023-04-13T03:35:29.245Z,4.80
2023-04-13T03:37:57.080Z,4.80
2023-04-13T03:40:24.877Z,4.80
2023-04-13T03:42:53.056Z,4.70
2023-04-13T03:45:22.260Z,4.80
2023-04-13T03:47:50.128Z,4.70
2023-04-13T03:50:18.286Z,4.70
2023-04-13T03:52:46.187Z,4.70
2023-04-13T03:55:14.139Z,4.80
2023-04-13T03:57:42.232Z,4.70
2023-04-13T04:00:14.002Z,4.70
2023-04-13T04:02:46.553Z,4.70
2023-04-13T04:05:14.594Z,4.70
2023-04-13T04:07:42.610Z,4.70
2023-04-13T04:10:10.950Z,4.70
2023-04-13T04:12:38.727Z,4.70
2023-04-13T04:15:07.882Z,4.70
2023-04-13T04:17:37.316Z,4.70
2023-04-13T04:20:10.609Z,4.70
2023-04-13T04:22:38.455Z,4.70
2023-04-13T04:25:07.094Z,4.80
2023-04-13T04:27:38.008Z,4.80
2023-04-13T04:30:07.208Z,4.80
2023-04-13T04:32:36.547Z,4.80
2023-04-13T04:35:05.028Z,4.80
2023-04-13T04:37:37.694Z,4.80
2023-04-13T04:40:09.247Z,4.90
2023-04-13T04:42:37.898Z,4.90
2023-04-13T04:45:07.004Z,4.90
2023-04-13T04:47:42.025Z,5.00
2023-04-13T04:50:10.671Z,5.00
2023-04-13T04:52:40.565Z,5.10
2023-04-13T04:55:09.133Z,5.10
2023-04-13T04:57:37.331Z,5.20
2023-04-13T05:00:09.278Z,5.20
2023-04-13T05:02:37.438Z,5.20
2023-04-13T05:05:06.913Z,5.30
2023-04-13T05:07:34.739Z,5.30
2023-04-13T05:10:04.374Z,5.40
2023-04-13T05:12:32.445Z,5.50
2023-04-13T05:15:00.194Z,5.50
2023-04-13T05:17:28.735Z,5.60
2023-04-13T05:19:56.560Z,5.70
2023-04-13T05:22:24.346Z,5.80
2023-04-13T05:24:52.097Z,5.80
2023-04-13T05:27:21.367Z,5.80
2023-04-13T05:29:49.132Z,5.90
2023-04-13T05:32:16.918Z,5.90
2023-04-13T05:34:44.769Z,6.00
2023-04-13T05:37:14.842Z,6.00
2023-04-13T05:39:42.609Z,6.10
2023-04-13T05:42:10.597Z,6.10
2023-04-13T05:44:40.034Z,6.20
2023-04-13T05:47:07.833Z,6.20
2023-04-13T05:49:37.084Z,6.20
2023-04-13T05:52:06.663Z,6.30
2023-04-13T05:54:34.511Z,6.30
2023-04-13T05:57:02.434Z,6.40
2023-04-13T05:59:30.142Z,6.40
2023-04-13T06:02:01.003Z,6.40
2023-04-13T06:04:28.986Z,6.50
2023-04-13T06:06:57.528Z,6.50
2023-04-13T06:09:25.265Z,6.50
2023-04-13T06:11:53.143Z,6.50
2023-04-13T06:14:21.000Z,6.50
2023-04-13T06:16:48.795Z,6.50
2023-04-13T06:19:18.050Z,6.60
2023-04-13T06:21:46.122Z,6.60
2023-04-13T06:24:13.914Z,6.70
2023-04-13T06:26:41.810Z,6.70
2023-04-13T06:29:09.791Z,6.70
2023-04-13T06:31:37.598Z,6.80
2023-04-13T06:34:05.579Z,6.80
2023-04-13T06:36:34.776Z,6.80
2023-04-13T06:39:02.616Z,6.90
2023-04-13T06:41:30.321Z,6.80
2023-04-13T06:43:58.483Z,6.90
2023-04-13T06:46:27.617Z,6.90
2023-04-13T06:48:56.067Z,7.00
2023-04-13T06:51:23.780Z,7.00
2023-04-13T06:53:53.681Z,7.10
2023-04-13T06:56:21.423Z,7.10
2023-04-13T06:58:49.219Z,7.20
2023-04-13T07:01:17.395Z,7.30
2023-04-13T07:03:46.682Z,7.40
2023-04-13T07:06:14.628Z,7.50
2023-04-13T07:08:42.452Z,7.60
2023-04-13T07:11:11.681Z,7.70
2023-04-13T07:13:39.522Z,7.80
2023-04-13T07:16:08.846Z,7.80
2023-04-13T07:18:37.030Z,7.80
2023-04-13T07:21:05.507Z,7.90
2023-04-13T07:23:34.091Z,8.00
2023-04-13T07:26:02.319Z,8.10
2023-04-13T07:28:32.045Z,8.20
2023-04-13T07:31:00.098Z,8.30
2023-04-13T07:33:28.229Z,8.40
2023-04-13T07:35:55.983Z,8.50
2023-04-13T07:38:23.829Z,8.50
2023-04-13T07:40:51.803Z,8.60
2023-04-13T07:43:20.652Z,8.70
2023-04-13T07:45:49.884Z,8.70
2023-04-13T07:48:17.663Z,8.80
2023-04-13T07:50:45.685Z,8.80
2023-04-13T07:53:13.716Z,8.90
2023-04-13T07:55:41.540Z,8.90
2023-04-13T07:58:09.542Z,9.00
2023-04-13T08:00:37.354Z,9.00
2023-04-13T08:03:07.308Z,9.00
2023-04-13T08:05:36.750Z,9.10
2023-04-13T08:08:04.666Z,9.10
2023-04-13T08:10:32.433Z,9.30
2023-04-13T08:13:00.507Z,9.30
2023-04-13T08:15:28.975Z,9.40
2023-04-13T08:17:58.407Z,9.50
2023-04-13T08:20:27.649Z,9.50
2023-04-13T08:22:55.437Z,9.60
2023-04-13T08:25:23.241Z,9.60
2023-04-13T08:27:51.076Z,9.70
2023-04-13T08:30:18.903Z,9.70
2023-04-13T08:32:46.734Z,9.70
2023-04-13T08:35:14.544Z,9.80
2023-04-13T08:37:46.160Z,9.80
2023-04-13T08:40:14.368Z,9.90
2023-04-13T08:42:42.358Z,9.90
2023-04-13T08:45:11.278Z,10.00
2023-04-13T08:47:42.377Z,10.10
2023-04-13T08:50:11.167Z,10.10
2023-04-13T08:52:40.445Z,10.00
2023-04-13T08:55:10.733Z,10.00
2023-04-13T08:57:40.244Z,10.00
2023-04-13T09:00:13.375Z,9.90
2023-04-13T09:02:59.872Z,9.90
2023-04-13T09:05:31.610Z,10.00
2023-04-13T09:08:04.806Z,10.10
2023-04-13T09:10:34.021Z,10.10
2023-04-13T09:13:01.899Z,10.20
2023-04-13T09:15:31.737Z,10.20
2023-04-13T09:18:09.176Z,10.30
2023-04-13T09:20:37.905Z,10.30
2023-04-13T09:23:14.767Z,10.40
2023-04-13T09:25:45.273Z,10.40
2023-04-13T09:28:20.238Z,10.40
2023-04-13T09:30:48.214Z,10.50
2023-04-13T09:33:17.969Z,10.70
2023-04-13T09:35:46.078Z,10.70
2023-04-13T09:38:15.438Z,10.70
2023-04-13T09:40:54.563Z,10.80
2023-04-13T09:43:22.345Z,10.90
2023-04-13T09:45:50.595Z,10.90
2023-04-13T09:48:20.392Z,11.00
2023-04-13T09:50:59.299Z,11.10
2023-04-13T09:53:28.779Z,11.10
2023-04-13T09:56:00.978Z,11.10
2023-04-13T09:58:29.883Z,11.10
2023-04-13T10:00:59.266Z,10.90
2023-04-13T10:03:27.619Z,10.80
2023-04-13T10:06:00.042Z,10.80
2023-04-13T10:11:02.274Z,10.70
2023-04-13T10:13:36.901Z,10.60
2023-04-13T10:16:28.137Z,10.50
2023-04-13T10:19:01.856Z,10.30
2023-04-13T10:21:35.216Z,10.20
2023-04-13T10:24:11.425Z,10.10
2023-04-13T10:26:41.817Z,10.10
2023-04-13T10:29:11.594Z,10.20
2023-04-13T10:31:41.900Z,10.40
2023-04-13T10:34:10.772Z,10.60
2023-04-13T10:36:40.242Z,10.80
2023-04-13T10:39:08.251Z,10.90
2023-04-13T10:41:36.494Z,11.10
2023-04-13T10:44:07.065Z,11.20
2023-04-13T10:46:36.045Z,11.30
2023-04-13T10:49:08.151Z,11.30
2023-04-13T10:51:42.384Z,11.40
2023-04-13T10:54:11.344Z,11.30
2023-04-13T10:56:40.155Z,11.30
2023-04-13T10:59:09.523Z,11.20
2023-04-13T11:01:41.141Z,11.10
2023-04-13T11:04:12.659Z,11.10
2023-04-13T11:06:44.938Z,11.10
2023-04-13T11:09:16.018Z,11.30
2023-04-13T11:11:44.662Z,11.50
2023-04-13T11:14:21.921Z,11.60
2023-04-13T11:16:50.293Z,11.80
2023-04-13T11:19:18.922Z,11.90
2023-04-13T11:21:49.001Z,12.00
2023-04-13T11:24:25.611Z,12.00
2023-04-13T11:26:54.527Z,12.00
2023-04-13T11:29:23.619Z,12.00
2023-04-13T11:31:51.948Z,12.10
2023-04-13T11:34:28.847Z,12.10
2023-04-13T11:37:01.819Z,12.10
2023-04-13T11:39:32.077Z,12.10
2023-04-13T11:42:06.085Z,12.20
2023-04-13T11:44:36.631Z,12.10
2023-04-13T11:47:04.974Z,12.10
2023-04-13T11:49:33.744Z,12.10
2023-04-13T11:52:03.270Z,12.20
2023-04-13T11:54:32.039Z,12.30
2023-04-13T11:57:00.014Z,12.30
2023-04-13T11:59:29.258Z,12.30
2023-04-13T12:02:03.312Z,12.30
2023-04-13T12:04:38.451Z,12.40
2023-04-13T12:07:12.641Z,12.50
2023-04-13T12:09:56.293Z,12.60
2023-04-13T12:15:13.673Z,12.70
2023-04-13T12:17:50.125Z,12.60
2023-04-13T12:20:26.343Z,12.60
2023-04-13T12:22:59.915Z,12.60
2023-04-13T12:25:35.803Z,12.60
2023-04-13T12:28:04.680Z,12.70
2023-04-13T12:30:34.160Z,12.80
2023-04-13T12:33:03.659Z,13.00
2023-04-13T12:35:31.690Z,12.90
2023-04-13T12:38:00.186Z,12.90
2023-04-13T12:40:27.924Z,13.00
2023-04-13T12:42:55.765Z,12.90
2023-04-13T12:45:23.723Z,12.90
2023-04-13T12:47:51.646Z,13.00
2023-04-13T12:50:21.273Z,13.00
2023-04-13T12:52:49.775Z,13.00
2023-04-13T12:55:18.201Z,12.90
2023-04-13T12:57:46.266Z,12.80
2023-04-13T13:00:15.810Z,12.70
2023-04-13T13:02:44.017Z,12.80
2023-04-13T13:05:12.017Z,12.90
2023-04-13T13:07:41.747Z,13.00
2023-04-13T13:10:25.897Z,13.20
2023-04-13T13:13:00.546Z,13.40
2023-04-13T13:15:28.379Z,13.30
2023-04-13T13:17:56.156Z,13.30
2023-04-13T13:20:24.115Z,13.30
2023-04-13T13:22:53.139Z,13.40
2023-04-13T13:25:20.855Z,13.50
2023-04-13T13:30:19.467Z,13.60
2023-04-13T13:32:47.292Z,13.60
2023-04-13T13:35:16.110Z,13.50
2023-04-13T13:37:44.023Z,13.60
2023-04-13T13:40:13.832Z,13.50
2023-04-13T13:42:51.406Z,13.60
2023-04-13T13:45:20.002Z,13.50
2023-04-13T13:47:51.229Z,13.50
2023-04-13T13:50:20.243Z,13.40
2023-04-13T13:52:59.706Z,13.40
2023-04-13T13:55:32.006Z,13.40
2023-04-13T13:57:59.976Z,13.30
2023-04-13T14:00:28.020Z,13.40
2023-04-13T14:02:56.192Z,13.30
2023-04-13T14:05:24.244Z,13.30
2023-04-13T14:07:52.364Z,13.20
2023-04-13T14:10:20.436Z,13.00
2023-04-13T14:12:50.808Z,12.90
2023-04-13T14:15:19.223Z,12.80
2023-04-13T14:17:58.807Z,12.60
2023-04-13T14:20:34.691Z,12.30
2023-04-13T14:23:02.475Z,12.10
2023-04-13T14:25:30.382Z,12.00
2023-04-13T14:27:59.434Z,11.80
2023-04-13T14:30:28.278Z,11.80
2023-04-13T14:32:56.593Z,11.70
2023-04-13T14:35:24.764Z,11.70
2023-04-13T14:37:52.971Z,11.60
2023-04-13T14:40:22.490Z,11.60
2023-04-13T14:42:52.618Z,11.60
2023-04-13T14:45:22.057Z,11.60
2023-04-13T14:47:50.001Z,11.60
2023-04-13T14:50:17.929Z,11.60
2023-04-13T14:52:47.044Z,11.70
2023-04-13T14:55:15.702Z,11.90
2023-04-13T14:57:43.584Z,12.00
2023-04-13T15:00:18.164Z,12.10
2023-04-13T15:02:47.772Z,12.10
2023-04-13T15:05:15.746Z,12.10
2023-04-13T15:07:45.598Z,12.10
2023-04-13T15:10:14.241Z,12.10
2023-04-13T15:12:42.016Z,12.00
2023-04-13T15:15:10.960Z,12.00
2023-04-13T15:17:38.774Z,12.00
2023-04-13T15:20:10.722Z,11.90
2023-04-13T15:22:38.653Z,11.90
2023-04-13T15:25:07.552Z,11.90
2023-04-13T15:27:35.483Z,11.90
2023-04-13T15:30:04.054Z,11.90
2023-04-13T15:32:35.137Z,12.00
2023-04-13T15:35:03.444Z,12.10
2023-04-13T15:37:32.689Z,12.10
2023-04-13T15:40:01.700Z,12.10
2023-04-13T15:42:29.746Z,12.10
2023-04-13T15:44:57.451Z,12.10
2023-04-13T15:47:25.416Z,12.10
2023-04-13T15:49:53.348Z,12.10
2023-04-13T15:52:21.347Z,12.20
2023-04-13T15:54:50.531Z,12.20
2023-04-13T15:57:18.577Z,12.20
2023-04-13T15:59:46.336Z,12.20
2023-04-13T16:02:14.491Z,12.20
2023-04-13T16:04:42.504Z,12.10
2023-04-13T16:07:14.226Z,12.10
2023-04-13T16:09:44.845Z,12.00
2023-04-13T16:12:14.511Z,12.00
2023-04-13T16:14:44.689Z,11.90
2023-04-13T16:17:14.997Z,11.90
2023-04-13T16:19:46.948Z,11.90
2023-04-13T16:22:17.125Z,11.80
2023-04-13T16:24:45.124Z,11.80
2023-04-13T16:27:14.742Z,11.70
2023-04-13T16:29:43.549Z,11.70
2023-04-13T16:32:11.526Z,11.70
2023-04-13T16:34:39.687Z,11.60
2023-04-13T16:37:08.804Z,11.50
2023-04-13T16:39:36.604Z,11.30
2023-04-13T16:42:05.487Z,11.20
2023-04-13T16:44:34.805Z,11.10
2023-04-13T16:47:03.059Z,11.00
2023-04-13T16:49:32.065Z,11.00
2023-04-13T16:51:59.918Z,10.90
2023-04-13T16:54:28.216Z,10.80
2023-04-13T16:56:56.194Z,10.80
2023-04-13T16:59:25.897Z,10.90
2023-04-13T17:01:58.801Z,11.00
2023-04-13T17:04:29.081Z,11.00
2023-04-13T17:07:01.933Z,11.10
2023-04-13T17:09:30.200Z,11.20
2023-04-13T17:11:58.418Z,11.20
2023-04-13T17:14:26.870Z,11.30
2023-04-13T17:16:56.097Z,11.30
2023-04-13T17:19:24.638Z,11.20
2023-04-13T17:21:52.646Z,11.20
2023-04-13T17:24:22.970Z,11.20
2023-04-13T17:26:51.015Z,11.10
2023-04-13T17:29:21.816Z,11.00
2023-04-13T17:31:50.003Z,10.90
2023-04-13T17:34:19.160Z,10.80
2023-04-13T17:36:47.278Z,10.70
2023-04-13T17:39:15.015Z,10.60
2023-04-13T17:41:43.174Z,10.50
2023-04-13T17:44:12.428Z,10.40
2023-04-13T17:46:40.198Z,10.30
2023-04-13T17:49:07.990Z,10.20
2023-04-13T17:51:37.574Z,10.10
2023-04-13T17:54:08.172Z,10.00
2023-04-13T17:56:36.041Z,10.00
2023-04-13T17:59:03.913Z,9.90
2023-04-13T18:01:32.221Z,9.80
2023-04-13T18:04:00.979Z,9.70
2023-04-13T18:06:30.671Z,9.70
2023-04-13T18:08:59.912Z,9.60
2023-04-13T18:11:28.033Z,9.60
2023-04-13T18:13:56.040Z,9.50
2023-04-13T18:16:25.466Z,9.50
2023-04-13T18:18:53.264Z,9.40
2023-04-13T18:21:21.397Z,9.30
2023-04-13T18:23:49.403Z,9.30
2023-04-13T18:26:18.638Z,9.20
2023-04-13T18:28:46.487Z,9.20
2023-04-13T18:31:14.385Z,9.10
2023-04-13T18:33:42.144Z,9.00
2023-04-13T18:36:10.964Z,9.00
2023-04-13T18:38:39.060Z,8.90
2023-04-13T18:41:07.035Z,8.90
2023-04-13T18:43:36.276Z,8.90
2023-04-13T18:46:04.528Z,8.90
2023-04-13T18:48:32.410Z,8.90
2023-04-13T18:51:01.428Z,8.90
2023-04-13T18:53:29.578Z,9.00
2023-04-13T18:55:59.523Z,9.00
2023-04-13T18:58:29.522Z,9.10
2023-04-13T19:00:58.934Z,9.10
2023-04-13T19:03:26.887Z,9.10
2023-04-13T19:05:55.169Z,9.20
2023-04-13T19:08:23.474Z,9.20
2023-04-13T19:10:51.264Z,9.30
2023-04-13T19:13:19.245Z,9.30
2023-04-13T19:15:47.267Z,9.40
2023-04-13T19:18:16.546Z,9.40
2023-04-13T19:20:44.591Z,9.40
2023-04-13T19:23:12.438Z,9.40
2023-04-13T19:25:41.122Z,9.40
2023-04-13T19:28:09.191Z,9.50
2023-04-13T19:30:37.001Z,9.40
2023-04-13T19:33:06.499Z,9.40
2023-04-13T19:35:35.655Z,9.50
2023-04-13T19:38:05.749Z,9.40
2023-04-13T19:40:33.504Z,9.40
2023-04-13T19:43:01.274Z,9.40
2023-04-13T19:45:29.001Z,9.40
2023-04-13T19:47:56.929Z,9.40
2023-04-13T19:50:24.789Z,9.30
2023-04-13T19:52:53.936Z,9.30
2023-04-13T19:55:22.104Z,9.20
2023-04-13T19:57:49.924Z,9.10
2023-04-13T20:00:22.370Z,9.00
2023-04-13T20:02:51.952Z,8.90
2023-04-13T20:05:20.883Z,8.80
2023-04-13T20:07:48.908Z,8.70
2023-04-13T20:10:21.088Z,8.60
2023-04-13T20:12:48.920Z,8.50
2023-04-13T20:15:16.829Z,8.40
2023-04-13T20:17:44.549Z,8.20
2023-04-13T20:20:13.386Z,8.20
2023-04-13T20:22:41.175Z,8.10
2023-04-13T20:25:10.048Z,8.00
2023-04-13T20:27:41.819Z,8.00
2023-04-13T20:30:11.170Z,8.00
2023-04-13T20:32:39.153Z,7.90
2023-04-13T20:35:07.990Z,7.80
2023-04-13T20:37:36.084Z,7.70
2023-04-13T20:40:06.949Z,7.70
2023-04-13T20:42:35.021Z,7.60
2023-04-13T20:45:04.615Z,7.60
2023-04-13T20:47:32.516Z,7.50
2023-04-13T20:50:00.850Z,7.50
2023-04-13T20:52:30.167Z,7.40
2023-04-13T20:54:58.258Z,7.40
2023-04-13T20:57:26.315Z,7.30
2023-04-13T20:59:54.246Z,7.30
2023-04-13T21:02:23.539Z,7.20
2023-04-13T21:04:54.045Z,7.20
2023-04-13T21:07:22.226Z,7.10
2023-04-13T21:09:50.043Z,7.10
2023-04-13T21:12:17.961Z,7.00
2023-04-13T21:14:45.648Z,7.00
2023-04-13T21:17:14.039Z,7.00
2023-04-13T21:19:43.189Z,6.90
2023-04-13T21:22:11.286Z,6.90
2023-04-13T21:24:39.026Z,6.80
2023-04-13T21:27:06.746Z,6.80
2023-04-13T21:29:34.774Z,6.80
2023-04-13T21:32:02.686Z,6.70
2023-04-13T21:34:30.458Z,6.70
2023-04-13T21:37:01.478Z,6.70
2023-04-13T21:39:29.244Z,6.60
2023-04-13T21:41:56.982Z,6.60
2023-04-13T21:44:29.697Z,6.60
2023-04-13T21:46:58.366Z,6.50
2023-04-13T21:49:26.348Z,6.50
2023-04-13T21:51:54.862Z,6.40
2023-04-13T21:54:23.930Z,6.40
2023-04-13T21:56:51.698Z,6.40
2023-04-13T21:59:19.495Z,6.40
2023-04-13T22:01:47.494Z,6.30
2023-04-13T22:04:15.589Z,6.30
2023-04-13T22:06:43.870Z,6.30
2023-04-13T22:09:12.405Z,6.30
2023-04-13T22:11:41.722Z,6.20
2023-04-13T22:14:09.665Z,6.20
2023-04-13T22:16:37.402Z,6.20
2023-04-13T22:19:05.313Z,6.20
2023-04-13T22:21:35.926Z,6.20
2023-04-13T22:24:04.025Z,6.20
2023-04-13T22:26:31.896Z,6.10
2023-04-13T22:29:01.182Z,6.10
2023-04-13T22:31:29.297Z,6.10
2023-04-13T22:33:57.423Z,6.10
2023-04-13T22:36:25.231Z,6.10
2023-04-13T22:38:54.508Z,6.10
2023-04-13T22:41:22.595Z,6.10
2023-04-13T22:43:50.529Z,6.10
2023-04-13T22:46:19.709Z,6.10
2023-04-13T22:48:48.196Z,6.00
2023-04-13T22:51:16.448Z,6.00
2023-04-13T22:53:44.362Z,6.00
2023-04-13T22:56:12.074Z,6.00
2023-04-13T22:58:39.867Z,6.00
2023-04-13T23:01:07.822Z,5.90
2023-04-13T23:03:37.451Z,5.90
2023-04-13T23:06:05.786Z,5.90
2023-04-13T23:08:33.627Z,5.90
2023-04-13T23:11:08.708Z,5.90
2023-04-13T23:13:36.834Z,5.80
2023-04-13T23:16:05.839Z,5.80
2023-04-13T23:18:33.799Z,5.80
2023-04-13T23:21:09.934Z,5.80
2023-04-13T23:23:37.750Z,5.70
2023-04-13T23:26:05.808Z,5.70
2023-04-13T23:28:33.587Z,5.70
2023-04-13T23:31:05.215Z,5.70
2023-04-13T23:33:33.154Z,5.60
2023-04-13T23:36:02.408Z,5.60
2023-04-13T23:38:30.796Z,5.60
2023-04-13T23:40:58.827Z,5.60
2023-04-13T23:43:26.827Z,5.60
2023-04-13T23:45:55.143Z,5.60
2023-04-13T23:48:24.574Z,5.60
2023-04-13T23:50:52.413Z,5.60
2023-04-13T23:53:21.617Z,5.60
2023-04-13T23:55:49.380Z,5.60
2023-04-13T23:58:17.349Z,5.50
